Time;durP1;ratioP1;P1;durP2;ratioP2;P2;SDS_P1;SDS_P2;PMS_P1;PMS_P2;Temp;Humidity;BMP_temperature;BMP_pressure;BME280_temperature;BME280_humidity;BME280_pressure;Samples;Min_cycle;Max_cycle;Signal;HPM_P1;HPM_P2
2023/07/22 00:02:22;;;;;;;14.57;8.43;;;13.70;99.90;;;;;;4964392;28;20065;-61
2023/07/22 00:04:48;;;;;;;12.10;7.25;;;13.70;99.90;;;;;;4908980;29;20077;-61
2023/07/22 00:07:15;;;;;;;16.98;8.30;;;13.80;99.90;;;;;;4921929;28;20412;-62
2023/07/22 00:09:43;;;;;;;15.32;8.13;;;13.70;99.90;;;;;;4929531;28;20076;-61
2023/07/22 00:12:08;;;;;;;14.77;7.82;;;13.70;99.90;;;;;;4936463;28;20039;-61
2023/07/22 00:14:38;;;;;;;12.27;8.10;;;13.70;99.90;;;;;;4950177;28;20035;-61
2023/07/22 00:17:04;;;;;;;13.68;7.80;;;13.70;99.90;;;;;;4957553;28;20078;-61
2023/07/22 00:19:30;;;;;;;16.77;8.13;;;13.70;99.90;;;;;;4927295;28;20079;-61
2023/07/22 00:21:55;;;;;;;17.45;8.70;;;13.70;99.90;;;;;;4949629;28;20067;-64
2023/07/22 00:24:22;;;;;;;17.08;8.77;;;13.60;99.90;;;;;;4937442;28;20039;-61
2023/07/22 00:26:49;;;;;;;15.05;8.25;;;13.60;99.90;;;;;;4948059;28;20040;-64
2023/07/22 00:29:15;;;;;;;15.73;7.72;;;13.60;99.90;;;;;;4955533;28;20039;-62
2023/07/22 00:31:41;;;;;;;16.63;8.50;;;13.60;99.90;;;;;;4974413;28;20042;-63
2023/07/22 00:34:07;;;;;;;14.48;7.97;;;13.60;99.90;;;;;;4946889;28;20496;-62
2023/07/22 00:36:33;;;;;;;18.77;8.70;;;13.60;99.90;;;;;;4974122;28;20037;-61
2023/07/22 00:38:58;;;;;;;15.02;8.18;;;13.50;99.90;;;;;;4970153;28;20042;-62
2023/07/22 00:41:24;;;;;;;16.23;7.82;;;13.50;99.90;;;;;;4966122;28;20039;-61
2023/07/22 00:43:49;;;;;;;13.35;8.05;;;13.60;99.90;;;;;;4924890;28;20085;-61
2023/07/22 00:46:15;;;;;;;14.57;8.45;;;13.50;99.90;;;;;;4959457;28;20243;-61
2023/07/22 00:48:42;;;;;;;14.23;8.18;;;13.50;99.90;;;;;;4930187;28;20039;-61
2023/07/22 00:51:07;;;;;;;14.73;8.02;;;13.50;99.90;;;;;;4953306;28;20050;-62
2023/07/22 00:53:33;;;;;;;15.10;8.45;;;13.50;99.90;;;;;;4939991;28;20034;-61
2023/07/22 00:55:59;;;;;;;15.15;8.23;;;13.50;99.90;;;;;;4927467;28;20031;-61
2023/07/22 00:58:25;;;;;;;15.00;8.20;;;13.40;99.90;;;;;;4938943;28;20064;-62
2023/07/22 01:00:52;;;;;;;16.70;8.25;;;13.40;99.90;;;;;;4948362;28;20031;-62
2023/07/22 01:03:18;;;;;;;15.65;8.73;;;13.40;99.90;;;;;;4957462;28;20097;-62
2023/07/22 01:05:47;;;;;;;13.15;8.10;;;13.50;99.90;;;;;;4933230;29;20224;-63
2023/07/22 01:08:13;;;;;;;17.55;9.43;;;13.50;99.90;;;;;;4925862;28;20034;-63
2023/07/22 01:10:39;;;;;;;16.10;8.35;;;13.50;99.90;;;;;;4958617;28;20061;-63
2023/07/22 01:13:05;;;;;;;19.95;9.18;;;13.50;99.90;;;;;;5003456;28;20499;-63
2023/07/22 01:15:31;;;;;;;13.52;8.23;;;13.50;99.90;;;;;;4959665;28;20031;-63
2023/07/22 01:18:01;;;;;;;16.55;8.85;;;13.60;99.90;;;;;;4918082;28;20122;-63
2023/07/22 01:20:28;;;;;;;14.98;8.60;;;13.60;99.90;;;;;;4944565;28;20033;-63
2023/07/22 01:22:54;;;;;;;12.98;8.20;;;13.60;99.90;;;;;;4978714;28;20047;-63
2023/07/22 01:25:23;;;;;;;12.73;7.80;;;13.60;99.90;;;;;;4956275;28;20058;-63
2023/07/22 01:27:50;;;;;;;16.13;8.55;;;13.60;99.90;;;;;;4974445;28;20101;-63
2023/07/22 01:30:17;;;;;;;14.25;8.93;;;13.60;99.90;;;;;;4969996;28;20044;-63
2023/07/22 01:32:43;;;;;;;17.13;8.98;;;13.60;99.90;;;;;;5001409;28;20090;-63
2023/07/22 01:35:09;;;;;;;15.63;8.55;;;13.60;99.90;;;;;;4972921;28;20042;-63
2023/07/22 01:37:35;;;;;;;15.73;8.55;;;13.60;99.90;;;;;;4949565;28;20365;-63
2023/07/22 01:40:01;;;;;;;12.73;7.93;;;13.60;99.90;;;;;;4960498;28;20168;-63
2023/07/22 01:42:27;;;;;;;17.15;8.90;;;13.60;99.90;;;;;;4948263;28;20035;-63
2023/07/22 01:44:53;;;;;;;14.65;8.10;;;13.60;99.90;;;;;;4974360;28;20035;-63
2023/07/22 01:47:18;;;;;;;15.60;8.50;;;13.60;99.90;;;;;;4990220;28;20049;-63
2023/07/22 01:49:45;;;;;;;12.68;7.97;;;13.60;99.90;;;;;;4953259;28;20035;-62
2023/07/22 01:52:10;;;;;;;16.63;8.80;;;13.60;99.90;;;;;;4982867;28;20047;-63
2023/07/22 01:54:36;;;;;;;15.65;8.50;;;13.60;99.90;;;;;;4934586;29;20392;-63
2023/07/22 01:57:01;;;;;;;15.70;8.57;;;13.60;99.90;;;;;;4949137;28;20043;-63
2023/07/22 01:59:27;;;;;;;14.35;8.07;;;13.60;99.90;;;;;;4942749;28;20030;-63
2023/07/22 02:01:53;;;;;;;14.05;7.93;;;13.60;99.90;;;;;;4976443;28;20039;-63
2023/07/22 02:04:18;;;;;;;16.63;8.80;;;13.60;99.90;;;;;;4973467;28;20134;-63
2023/07/22 02:06:44;;;;;;;15.65;9.23;;;13.60;99.90;;;;;;4948189;28;20508;-63
2023/07/22 02:09:13;;;;;;;16.13;9.38;;;13.60;99.90;;;;;;4954673;28;20043;-63
2023/07/22 02:11:39;;;;;;;17.65;8.65;;;13.60;99.90;;;;;;5003266;28;20042;-63
2023/07/22 02:14:06;;;;;;;17.25;8.32;;;13.60;99.90;;;;;;4930144;28;20118;-63
2023/07/22 02:16:35;;;;;;;16.73;8.65;;;13.60;99.90;;;;;;5012789;28;20048;-63
2023/07/22 02:19:00;;;;;;;14.65;8.82;;;13.60;99.90;;;;;;4937745;28;20050;-63
2023/07/22 02:21:26;;;;;;;16.35;9.43;;;13.70;99.90;;;;;;4965401;28;20037;-63
2023/07/22 02:23:51;;;;;;;17.08;9.15;;;13.70;99.90;;;;;;4966822;28;20066;-63
2023/07/22 02:26:17;;;;;;;16.63;8.98;;;13.70;99.90;;;;;;4946011;28;20671;-63
2023/07/22 02:28:43;;;;;;;15.73;8.80;;;13.70;99.90;;;;;;4937009;28;20099;-63
2023/07/22 02:31:08;;;;;;;17.42;9.18;;;13.60;99.90;;;;;;4947215;28;20154;-63
2023/07/22 02:33:34;;;;;;;18.05;9.10;;;13.60;99.90;;;;;;4927484;29;20059;-63
2023/07/22 02:36:00;;;;;;;17.20;10.00;;;13.60;99.90;;;;;;4947905;28;20043;-63
2023/07/22 02:38:25;;;;;;;18.35;10.50;;;13.60;99.90;;;;;;4942151;28;20397;-63
2023/07/22 02:40:51;;;;;;;20.83;9.65;;;13.60;99.90;;;;;;5017859;28;20175;-63
2023/07/22 02:43:17;;;;;;;20.83;10.30;;;13.60;99.90;;;;;;4928530;28;20089;-63
2023/07/22 02:45:44;;;;;;;20.05;10.40;;;13.60;99.90;;;;;;4930444;28;20050;-63
2023/07/22 02:48:09;;;;;;;18.38;9.88;;;13.60;99.90;;;;;;4938809;28;20405;-63
2023/07/22 02:50:36;;;;;;;20.90;9.98;;;13.70;99.90;;;;;;4970655;28;20029;-63
2023/07/22 02:53:02;;;;;;;16.42;10.25;;;13.60;99.90;;;;;;4989833;28;20054;-63
2023/07/22 02:55:28;;;;;;;19.05;10.13;;;13.60;99.90;;;;;;4938053;28;20035;-63
2023/07/22 02:57:53;;;;;;;18.92;9.90;;;13.60;99.90;;;;;;4925084;28;20070;-63
2023/07/22 03:00:25;;;;;;;20.38;10.18;;;13.60;99.90;;;;;;4949329;28;20052;-63
2023/07/22 03:02:53;;;;;;;17.35;10.20;;;13.60;99.90;;;;;;5018225;28;20068;-63
2023/07/22 03:05:19;;;;;;;21.15;10.40;;;13.70;99.90;;;;;;4948133;28;20465;-63
2023/07/22 03:07:45;;;;;;;17.77;10.32;;;13.70;99.90;;;;;;4942535;28;20137;-63
2023/07/22 03:10:11;;;;;;;20.55;9.88;;;13.70;99.90;;;;;;4952543;28;20108;-63
2023/07/22 03:12:37;;;;;;;19.33;10.77;;;13.70;99.90;;;;;;4949312;28;20375;-63
2023/07/22 03:15:08;;;;;;;19.10;10.63;;;13.60;99.90;;;;;;4915043;29;20043;-63
2023/07/22 03:17:35;;;;;;;19.73;10.48;;;13.60;99.90;;;;;;4935613;28;20046;-63
2023/07/22 03:20:04;;;;;;;17.48;9.73;;;13.60;99.90;;;;;;4950594;28;20050;-63
2023/07/22 03:22:29;;;;;;;19.65;9.48;;;13.60;99.90;;;;;;4949417;28;20044;-63
2023/07/22 03:24:55;;;;;;;17.30;10.25;;;13.60;99.90;;;;;;4918798;28;20128;-63
2023/07/22 03:27:21;;;;;;;15.70;9.45;;;13.60;99.90;;;;;;4941659;28;20046;-63
2023/07/22 03:29:47;;;;;;;17.27;10.25;;;13.70;99.90;;;;;;4937943;29;20489;-63
2023/07/22 03:32:12;;;;;;;20.02;10.43;;;13.70;99.90;;;;;;4945690;28;20046;-63
2023/07/22 03:34:38;;;;;;;15.75;9.95;;;13.70;99.90;;;;;;4940608;28;20505;-63
2023/07/22 03:37:03;;;;;;;18.95;10.20;;;13.70;99.90;;;;;;4939922;28;20127;-63
2023/07/22 03:39:29;;;;;;;17.35;9.98;;;13.70;99.90;;;;;;4921301;28;20044;-63
2023/07/22 03:41:55;;;;;;;20.38;10.80;;;13.70;99.90;;;;;;4956032;28;20098;-63
2023/07/22 03:44:20;;;;;;;21.10;9.82;;;13.70;99.90;;;;;;4948718;28;20055;-63
2023/07/22 03:46:46;;;;;;;16.77;9.40;;;13.70;99.90;;;;;;4940760;28;20032;-63
2023/07/22 03:49:11;;;;;;;14.20;9.25;;;13.70;99.90;;;;;;4948767;28;20381;-63
2023/07/22 03:51:37;;;;;;;16.13;10.20;;;13.70;99.90;;;;;;4974455;28;20044;-63
2023/07/22 03:54:02;;;;;;;18.00;9.98;;;13.80;99.90;;;;;;4956735;28;20058;-63
2023/07/22 03:56:28;;;;;;;15.48;9.40;;;13.80;99.90;;;;;;4949829;28;20080;-63
2023/07/22 03:58:54;;;;;;;17.65;10.68;;;13.80;99.90;;;;;;4977987;28;20054;-63
2023/07/22 04:01:19;;;;;;;15.73;10.13;;;13.80;99.90;;;;;;4947416;28;20046;-64
2023/07/22 04:03:45;;;;;;;15.80;9.38;;;13.80;99.90;;;;;;4931395;28;20047;-64
2023/07/22 04:06:11;;;;;;;16.25;9.30;;;13.90;99.90;;;;;;4935732;28;20050;-64
2023/07/22 04:08:36;;;;;;;17.75;9.63;;;13.90;99.90;;;;;;4966213;28;20034;-64
2023/07/22 04:11:02;;;;;;;15.70;9.57;;;13.90;99.90;;;;;;4959501;28;20047;-64
2023/07/22 04:13:28;;;;;;;15.07;9.07;;;13.90;99.90;;;;;;4946061;28;20404;-64
2023/07/22 04:15:54;;;;;;;16.92;9.00;;;13.90;99.90;;;;;;4954431;28;20058;-64
2023/07/22 04:18:20;;;;;;;16.33;9.75;;;14.00;99.90;;;;;;4957698;22;21114;-63
2023/07/22 04:20:49;;;;;;;15.05;9.10;;;14.00;99.90;;;;;;5010837;28;20158;-63
2023/07/22 04:23:15;;;;;;;15.38;9.15;;;14.00;99.90;;;;;;5000170;28;20056;-63
2023/07/22 04:25:42;;;;;;;15.43;9.45;;;14.00;99.90;;;;;;5001195;28;20030;-63
2023/07/22 04:28:08;;;;;;;17.00;9.80;;;14.00;99.90;;;;;;5006239;28;20102;-63
2023/07/22 04:30:35;;;;;;;20.30;10.27;;;14.10;99.90;;;;;;5008762;28;20037;-63
2023/07/22 04:33:01;;;;;;;16.98;10.13;;;14.10;99.90;;;;;;5008891;28;20042;-63
2023/07/22 04:35:26;;;;;;;16.42;10.48;;;14.00;99.90;;;;;;5006839;28;20407;-63
2023/07/22 04:37:52;;;;;;;19.23;10.27;;;14.10;99.90;;;;;;5009447;28;20037;-63
2023/07/22 04:40:19;;;;;;;18.80;10.57;;;14.00;99.90;;;;;;5008774;28;20232;-63
2023/07/22 04:42:46;;;;;;;16.52;10.02;;;14.10;99.90;;;;;;5009070;28;20033;-63
2023/07/22 04:45:11;;;;;;;20.27;10.00;;;14.10;99.90;;;;;;4989057;28;20073;-63
2023/07/22 04:47:38;;;;;;;17.88;10.43;;;14.10;99.90;;;;;;5009786;28;20066;-63
2023/07/22 04:50:09;;;;;;;17.42;10.15;;;14.10;99.90;;;;;;5008192;28;20042;-63
2023/07/22 04:52:35;;;;;;;20.50;10.23;;;14.10;99.90;;;;;;4998873;28;20616;-63
2023/07/22 04:55:02;;;;;;;16.50;10.18;;;14.10;99.90;;;;;;5000743;28;20038;-63
2023/07/22 04:57:27;;;;;;;17.52;10.15;;;14.10;99.90;;;;;;5031588;28;20038;-63
2023/07/22 04:59:53;;;;;;;16.40;10.25;;;14.10;99.90;;;;;;4997655;28;20039;-63
2023/07/22 05:02:19;;;;;;;19.00;10.02;;;14.10;99.90;;;;;;5008049;28;20231;-63
2023/07/22 05:04:44;;;;;;;16.98;9.50;;;14.10;99.90;;;;;;4984626;28;20038;-63
2023/07/22 05:07:10;;;;;;;18.95;10.18;;;14.10;99.90;;;;;;4984491;28;20376;-63
2023/07/22 05:09:37;;;;;;;17.30;9.77;;;14.00;99.90;;;;;;5004097;28;20059;-63
2023/07/22 05:12:02;;;;;;;16.48;9.88;;;14.10;99.90;;;;;;5000134;28;20038;-63
2023/07/22 05:14:28;;;;;;;17.80;9.88;;;14.10;99.90;;;;;;4996780;28;20407;-63
2023/07/22 05:16:54;;;;;;;16.38;9.65;;;14.00;99.90;;;;;;5002152;28;20038;-63
2023/07/22 05:19:20;;;;;;;17.27;10.68;;;14.00;99.90;;;;;;5001894;28;20109;-63
2023/07/22 05:21:46;;;;;;;19.10;10.77;;;14.00;99.90;;;;;;5001131;28;20096;-62
2023/07/22 05:24:12;;;;;;;18.52;9.82;;;14.00;99.90;;;;;;4990800;28;20447;-63
2023/07/22 05:26:38;;;;;;;20.33;10.82;;;14.00;99.90;;;;;;5004882;28;20087;-63
2023/07/22 05:29:03;;;;;;;19.27;11.07;;;14.00;99.90;;;;;;5045872;28;20045;-63
2023/07/22 05:31:29;;;;;;;17.10;10.82;;;14.00;99.90;;;;;;5005501;28;20048;-63
2023/07/22 05:33:54;;;;;;;18.73;11.23;;;14.00;99.90;;;;;;5019408;28;20034;-64
2023/07/22 05:36:21;;;;;;;19.45;12.27;;;14.00;99.90;;;;;;5003312;28;20496;-64
2023/07/22 05:38:46;;;;;;;17.17;10.82;;;14.10;99.90;;;;;;4995217;28;20121;-64
2023/07/22 05:41:12;;;;;;;21.40;12.00;;;14.10;99.90;;;;;;4998375;28;20470;-64
2023/07/22 05:43:38;;;;;;;19.77;12.25;;;14.10;99.90;;;;;;4998951;28;20038;-64
2023/07/22 05:46:03;;;;;;;22.67;12.80;;;14.10;99.90;;;;;;4998809;28;20335;-64
2023/07/22 05:48:29;;;;;;;20.80;12.80;;;14.00;99.90;;;;;;5000340;28;20038;-64
2023/07/22 05:50:55;;;;;;;22.38;12.85;;;14.10;99.90;;;;;;5004833;28;20426;-64
2023/07/22 05:53:20;;;;;;;25.38;13.18;;;14.10;99.90;;;;;;4981678;28;20032;-64
2023/07/22 05:55:46;;;;;;;21.75;13.38;;;14.10;99.90;;;;;;4993295;28;20095;-63
2023/07/22 05:58:17;;;;;;;26.08;15.23;;;14.20;99.90;;;;;;5000221;28;20083;-64
2023/07/22 06:00:42;;;;;;;25.40;15.57;;;14.20;99.90;;;;;;4996041;28;20038;-64
2023/07/22 06:03:08;;;;;;;23.85;14.68;;;14.20;99.90;;;;;;4998811;28;20038;-64
2023/07/22 06:05:34;;;;;;;25.77;15.40;;;14.20;99.90;;;;;;5005947;28;20046;-64
2023/07/22 06:08:00;;;;;;;24.90;15.18;;;14.20;99.90;;;;;;4988119;28;20042;-64
2023/07/22 06:10:25;;;;;;;28.08;15.68;;;14.20;99.90;;;;;;4999312;28;20178;-64
2023/07/22 06:12:51;;;;;;;29.20;16.38;;;14.30;99.90;;;;;;4998701;28;20447;-64
2023/07/22 06:15:17;;;;;;;25.38;14.43;;;14.30;99.90;;;;;;4983010;28;20121;-64
2023/07/22 06:17:42;;;;;;;28.60;16.05;;;14.30;99.90;;;;;;5000791;28;20068;-64
2023/07/22 06:20:08;;;;;;;30.63;17.17;;;14.30;99.90;;;;;;4922564;28;2345882;-64
2023/07/22 06:22:34;;;;;;;28.08;16.05;;;14.30;99.90;;;;;;5001488;28;20039;-64
2023/07/22 06:25:00;;;;;;;28.35;16.17;;;14.20;99.90;;;;;;5001973;28;20038;-64
2023/07/22 06:27:25;;;;;;;25.55;15.77;;;14.30;99.90;;;;;;4994396;28;20447;-64
2023/07/22 06:29:51;;;;;;;30.98;16.50;;;14.30;99.90;;;;;;5003188;28;20117;-64
2023/07/22 06:32:16;;;;;;;26.73;15.95;;;14.30;99.90;;;;;;4995520;28;20095;-64
2023/07/22 06:34:42;;;;;;;29.83;17.23;;;14.40;99.90;;;;;;5019895;28;20035;-64
2023/07/22 06:37:08;;;;;;;26.88;15.88;;;14.40;99.90;;;;;;5001977;28;20080;-64
2023/07/22 06:39:33;;;;;;;29.00;16.92;;;14.50;99.90;;;;;;5003376;28;20036;-64
2023/07/22 06:41:59;;;;;;;27.30;17.02;;;14.50;99.90;;;;;;5004457;28;20104;-64
2023/07/22 06:44:24;;;;;;;28.80;16.65;;;14.60;99.90;;;;;;4998554;28;20109;-64
2023/07/22 06:46:50;;;;;;;28.50;16.05;;;14.60;99.90;;;;;;4996445;28;20090;-64
2023/07/22 06:49:16;;;;;;;30.00;17.05;;;14.60;99.90;;;;;;5006792;28;20038;-64
2023/07/22 06:51:41;;;;;;;31.80;17.10;;;14.70;99.90;;;;;;5001954;28;20038;-64
2023/07/22 06:54:07;;;;;;;26.67;16.48;;;14.70;99.90;;;;;;4997812;28;20046;-64
2023/07/22 06:56:32;;;;;;;29.75;15.82;;;14.80;99.90;;;;;;4999592;28;20547;-64
2023/07/22 06:58:58;;;;;;;27.35;16.63;;;14.80;99.90;;;;;;5005534;28;20429;-63
2023/07/22 07:01:27;;;;;;;28.77;17.33;;;14.90;99.90;;;;;;4996047;28;20111;-64
2023/07/22 07:03:52;;;;;;;30.33;17.67;;;15.00;99.90;;;;;;5003094;28;20116;-64
2023/07/22 07:06:18;;;;;;;30.40;18.27;;;15.00;99.90;;;;;;4998534;28;20499;-64
2023/07/22 07:08:43;;;;;;;25.48;16.67;;;15.10;99.90;;;;;;5002184;28;20150;-64
2023/07/22 07:11:09;;;;;;;28.63;17.17;;;15.10;99.90;;;;;;5001920;28;20050;-64
2023/07/22 07:13:35;;;;;;;28.98;17.10;;;15.20;99.90;;;;;;5000989;28;20034;-64
2023/07/22 07:16:27;;;;;;;27.35;16.38;;;15.20;99.90;;;;;;5013104;28;20449;-63
2023/07/22 07:18:54;;;;;;;29.00;17.08;;;15.20;99.90;;;;;;5000306;28;20196;-64
2023/07/22 07:21:20;;;;;;;27.50;16.77;;;15.20;99.90;;;;;;4996257;28;20122;-64
2023/07/22 07:23:45;;;;;;;28.08;16.20;;;15.20;99.90;;;;;;5009327;28;20484;-64
2023/07/22 07:26:11;;;;;;;27.35;15.73;;;15.20;99.90;;;;;;5005761;28;20042;-64
2023/07/22 07:28:37;;;;;;;29.40;16.05;;;15.30;99.90;;;;;;5007529;28;20038;-64
2023/07/22 07:31:02;;;;;;;26.27;15.32;;;15.30;99.90;;;;;;4997865;28;20125;-64
2023/07/22 07:33:29;;;;;;;26.00;15.85;;;15.40;99.90;;;;;;5002172;28;20503;-64
2023/07/22 07:35:54;;;;;;;25.50;16.05;;;15.50;99.90;;;;;;5006096;28;20034;-63
2023/07/22 07:38:20;;;;;;;28.33;16.48;;;15.60;99.90;;;;;;5004105;28;20037;-63
2023/07/22 07:40:46;;;;;;;27.92;15.70;;;15.60;99.90;;;;;;5025884;28;20407;-64
2023/07/22 07:43:11;;;;;;;27.27;16.00;;;15.60;99.90;;;;;;5007937;28;20168;-64
2023/07/22 07:45:39;;;;;;;27.83;15.98;;;15.70;99.90;;;;;;5003143;28;20488;-64
2023/07/22 07:48:05;;;;;;;28.83;16.70;;;15.70;99.90;;;;;;5007296;28;20110;-63
2023/07/22 07:50:32;;;;;;;24.75;15.40;;;15.70;99.90;;;;;;5006345;28;20041;-63
2023/07/22 07:52:59;;;;;;;22.88;14.50;;;15.70;99.90;;;;;;5006370;28;20084;-65
2023/07/22 07:55:25;;;;;;;26.80;15.60;;;15.70;99.90;;;;;;4999569;28;20038;-64
2023/07/22 07:57:50;;;;;;;26.55;15.40;;;15.80;99.90;;;;;;5009426;28;20036;-64
2023/07/22 08:00:17;;;;;;;25.08;14.85;;;15.70;99.90;;;;;;5009540;28;20046;-63
2023/07/22 08:02:42;;;;;;;23.85;14.50;;;15.80;99.90;;;;;;5009495;28;20042;-64
2023/07/22 08:05:08;;;;;;;25.63;15.02;;;15.80;99.90;;;;;;4998667;28;20042;-63
2023/07/22 08:07:34;;;;;;;23.73;14.57;;;15.80;99.90;;;;;;5000686;28;20038;-64
2023/07/22 08:10:00;;;;;;;20.50;13.82;;;15.90;99.90;;;;;;5000918;28;20448;-64
2023/07/22 08:12:26;;;;;;;24.30;15.00;;;16.00;99.90;;;;;;5009521;28;20073;-64
2023/07/22 08:14:53;;;;;;;25.25;14.73;;;16.00;99.90;;;;;;5009428;28;20030;-65
2023/07/22 08:17:19;;;;;;;25.92;15.30;;;16.00;99.90;;;;;;5000115;28;20088;-63
2023/07/22 08:19:44;;;;;;;23.23;14.57;;;16.00;99.90;;;;;;5005807;28;20126;-64
2023/07/22 08:22:10;;;;;;;22.67;15.02;;;16.10;99.90;;;;;;5005212;28;20038;-63
2023/07/22 08:24:36;;;;;;;24.85;15.38;;;16.20;99.90;;;;;;5004632;28;20397;-63
2023/07/22 08:27:02;;;;;;;22.65;14.25;;;16.30;99.90;;;;;;5003397;28;20041;-62
2023/07/22 08:29:27;;;;;;;18.80;13.68;;;16.40;99.90;;;;;;5004473;28;20039;-64
2023/07/22 08:31:53;;;;;;;21.92;13.93;;;16.40;99.90;;;;;;5003802;28;20417;-64
2023/07/22 08:34:19;;;;;;;22.67;13.73;;;16.40;99.90;;;;;;4994884;28;20092;-64
2023/07/22 08:36:44;;;;;;;23.50;13.70;;;16.40;99.90;;;;;;4997058;28;20041;-64
2023/07/22 08:39:10;;;;;;;22.02;13.50;;;16.30;99.90;;;;;;4997148;28;20083;-65
2023/07/22 08:41:36;;;;;;;24.42;13.88;;;16.30;99.90;;;;;;4997242;28;20378;-63
2023/07/22 08:44:04;;;;;;;21.25;13.07;;;16.30;99.90;;;;;;5003360;28;20042;-64
2023/07/22 08:46:33;;;;;;;24.10;13.40;;;16.30;99.90;;;;;;5007376;28;20372;-64
2023/07/22 08:49:00;;;;;;;24.08;13.57;;;16.30;99.90;;;;;;5006013;28;20302;-63
2023/07/22 08:51:31;;;;;;;20.05;13.43;;;16.30;99.90;;;;;;4997767;28;20038;-63
2023/07/22 08:53:57;;;;;;;23.73;13.98;;;16.40;99.90;;;;;;4997976;28;20034;-64
2023/07/22 08:56:26;;;;;;;22.25;13.40;;;16.60;99.90;;;;;;4997847;28;20425;-62
2023/07/22 08:58:52;;;;;;;21.33;13.52;;;16.70;99.90;;;;;;5002708;28;20368;-65
2023/07/22 09:01:18;;;;;;;19.00;12.38;;;16.90;99.90;;;;;;4999609;28;20050;-63
2023/07/22 09:03:47;;;;;;;18.67;12.43;;;17.00;99.90;;;;;;4998935;28;20121;-63
2023/07/22 09:06:13;;;;;;;18.77;11.57;;;17.00;99.90;;;;;;5001515;28;20071;-63
2023/07/22 09:08:39;;;;;;;19.05;12.23;;;16.90;99.90;;;;;;5003877;28;20038;-64
2023/07/22 09:11:05;;;;;;;21.88;13.13;;;16.90;99.90;;;;;;5005289;28;20034;-63
2023/07/22 09:13:32;;;;;;;22.65;12.30;;;16.70;99.90;;;;;;5000673;28;20066;-62
2023/07/22 09:15:59;;;;;;;19.23;11.73;;;16.70;99.90;;;;;;5005093;28;20084;-65
2023/07/22 09:18:25;;;;;;;24.40;11.85;;;16.60;99.90;;;;;;5004998;28;20038;-65
2023/07/22 09:20:50;;;;;;;20.48;11.88;;;16.70;99.90;;;;;;4995754;28;20038;-64
2023/07/22 09:23:16;;;;;;;17.10;10.52;;;16.70;99.90;;;;;;5001892;28;20110;-64
2023/07/22 09:25:43;;;;;;;17.60;10.65;;;16.90;99.90;;;;;;5004174;28;20030;-64
2023/07/22 09:28:09;;;;;;;16.77;10.85;;;17.00;99.90;;;;;;4998241;28;20050;-64
2023/07/22 09:30:38;;;;;;;16.77;10.70;;;17.10;99.90;;;;;;5000255;28;20485;-64
2023/07/22 09:33:05;;;;;;;15.18;10.40;;;17.20;99.90;;;;;;5006324;28;20084;-64
2023/07/22 09:35:46;;;;;;;18.00;11.27;;;17.30;99.90;;;;;;5005831;28;20132;-64
2023/07/22 09:38:12;;;;;;;16.10;10.40;;;17.40;99.90;;;;;;5001423;28;20477;-64
2023/07/22 09:40:40;;;;;;;16.73;10.52;;;17.50;99.90;;;;;;5007284;28;20041;-64
2023/07/22 09:43:09;;;;;;;16.25;10.27;;;17.50;99.90;;;;;;5006910;28;20534;-64
2023/07/22 09:45:37;;;;;;;17.20;10.82;;;17.50;99.90;;;;;;5003821;28;20045;-64
2023/07/22 09:48:03;;;;;;;17.73;10.55;;;17.50;99.90;;;;;;4994822;28;20403;-64
2023/07/22 09:50:29;;;;;;;15.77;10.48;;;17.50;99.90;;;;;;4998367;28;20041;-64
2023/07/22 09:52:58;;;;;;;15.15;10.30;;;17.50;99.90;;;;;;5005774;28;20036;-64
2023/07/22 09:55:26;;;;;;;15.65;10.35;;;17.40;99.90;;;;;;5003233;28;20050;-64
2023/07/22 09:57:57;;;;;;;14.70;10.07;;;17.40;99.90;;;;;;4998973;28;20045;-64
2023/07/22 10:00:33;;;;;;;16.00;10.13;;;17.40;99.90;;;;;;4993657;28;20065;-64
2023/07/22 10:03:00;;;;;;;16.60;10.60;;;17.40;99.90;;;;;;5000240;28;20045;-63
2023/07/22 10:05:28;;;;;;;17.55;10.65;;;17.30;99.90;;;;;;5002228;28;20392;-64
2023/07/22 10:07:58;;;;;;;15.82;10.23;;;17.40;99.90;;;;;;4999974;28;20060;-63
2023/07/22 10:10:35;;;;;;;15.68;10.32;;;17.50;99.90;;;;;;4997758;28;20125;-63
2023/07/22 10:13:02;;;;;;;14.52;10.15;;;17.50;99.90;;;;;;5000920;28;20548;-63
2023/07/22 10:15:34;;;;;;;15.45;9.88;;;17.50;99.90;;;;;;5004490;28;20056;-63
2023/07/22 10:18:00;;;;;;;16.70;10.50;;;17.60;99.90;;;;;;5002805;28;20042;-65
2023/07/22 10:20:27;;;;;;;15.07;10.00;;;17.60;99.90;;;;;;5013662;22;20072;-65
2023/07/22 10:22:53;;;;;;;14.85;10.02;;;17.60;99.90;;;;;;4986446;28;20043;-65
2023/07/22 10:25:20;;;;;;;17.75;11.80;;;17.60;99.90;;;;;;5002779;28;20046;-64
2023/07/22 10:27:47;;;;;;;20.13;11.93;;;17.60;99.90;;;;;;4974964;28;20047;-64
2023/07/22 10:30:14;;;;;;;18.92;11.35;;;17.50;99.90;;;;;;4984272;28;20050;-64
2023/07/22 10:32:42;;;;;;;19.75;11.35;;;17.50;99.90;;;;;;4976696;28;20046;-62
2023/07/22 10:35:10;;;;;;;21.30;11.00;;;17.60;99.90;;;;;;4966011;28;20438;-62
2023/07/22 10:37:36;;;;;;;15.63;10.25;;;17.60;99.90;;;;;;4969093;28;20038;-62
2023/07/22 10:40:18;;;;;;;18.20;11.00;;;17.60;99.90;;;;;;4998333;28;20100;-62
2023/07/22 10:42:57;;;;;;;16.85;10.20;;;17.60;99.90;;;;;;4958005;28;20427;-62
2023/07/22 10:45:33;;;;;;;15.45;10.65;;;17.60;99.90;;;;;;5012070;28;20042;-61
2023/07/22 10:48:05;;;;;;;19.70;12.43;;;17.50;99.90;;;;;;4977069;28;20039;-62
2023/07/22 10:50:40;;;;;;;20.08;12.88;;;17.50;99.90;;;;;;4976000;28;20042;-62
2023/07/22 10:53:09;;;;;;;20.65;12.52;;;17.40;99.90;;;;;;4991008;28;20058;-64
2023/07/22 10:56:13;;;;;;;16.90;10.30;;;17.30;99.90;;;;;;4960774;28;20049;-64
2023/07/22 10:58:44;;;;;;;15.98;7.82;;;17.20;99.90;;;;;;4997794;28;20484;-64
2023/07/22 11:01:28;;;;;;;13.35;8.43;;;17.00;99.90;;;;;;4966982;28;20352;-64
2023/07/22 11:04:10;;;;;;;16.10;9.27;;;16.70;99.90;;;;;;4960845;28;20122;-63
2023/07/22 11:06:38;;;;;;;16.38;9.55;;;16.50;99.90;;;;;;4996664;28;20038;-63
2023/07/22 11:09:04;;;;;;;16.27;9.73;;;16.40;99.90;;;;;;4960629;28;20484;-63
2023/07/22 11:11:38;;;;;;;14.68;9.57;;;16.30;99.90;;;;;;5014476;28;20043;-63
2023/07/22 11:14:17;;;;;;;15.60;9.40;;;16.20;99.90;;;;;;4963763;28;20100;-63
2023/07/22 11:16:47;;;;;;;14.27;8.88;;;16.10;99.90;;;;;;5019658;28;20489;-63
2023/07/22 11:19:14;;;;;;;16.70;9.13;;;16.10;99.90;;;;;;4995549;28;20492;-63
2023/07/22 11:21:41;;;;;;;14.90;9.82;;;16.10;99.90;;;;;;4981611;28;20045;-63
2023/07/22 11:24:07;;;;;;;14.73;9.93;;;16.10;99.90;;;;;;4960264;28;20042;-63
2023/07/22 11:26:34;;;;;;;13.25;9.27;;;16.20;99.90;;;;;;5015469;28;20044;-63
2023/07/22 11:29:04;;;;;;;14.85;9.10;;;16.20;99.90;;;;;;4984531;28;20040;-63
2023/07/22 11:31:32;;;;;;;11.68;8.57;;;16.20;99.90;;;;;;5010910;28;20144;-63
2023/07/22 11:33:58;;;;;;;13.60;9.40;;;16.30;99.90;;;;;;5010537;28;20042;-63
2023/07/22 11:36:26;;;;;;;15.25;10.45;;;16.30;99.90;;;;;;4991182;28;20038;-63
2023/07/22 11:38:52;;;;;;;16.75;10.45;;;16.40;99.90;;;;;;4977249;28;20062;-63
2023/07/22 11:41:18;;;;;;;14.13;10.38;;;16.40;99.90;;;;;;5021659;28;20119;-63
2023/07/22 11:43:44;;;;;;;17.02;12.10;;;16.40;99.90;;;;;;5033661;28;20031;-63
2023/07/22 11:46:09;;;;;;;16.95;11.00;;;16.40;99.90;;;;;;5005732;28;20039;-62
2023/07/22 11:48:35;;;;;;;18.25;12.32;;;16.50;99.90;;;;;;4962442;28;20113;-63
2023/07/22 11:51:01;;;;;;;16.08;11.38;;;16.50;99.90;;;;;;5011802;28;20392;-63
2023/07/22 11:53:27;;;;;;;21.70;12.40;;;16.50;99.90;;;;;;4994446;28;20404;-62
2023/07/22 11:55:55;;;;;;;14.95;12.45;;;16.50;99.90;;;;;;4999814;28;20041;-62
2023/07/22 11:58:25;;;;;;;15.30;12.00;;;16.50;99.90;;;;;;4977521;28;20448;-62
2023/07/22 12:01:10;;;;;;;17.92;11.93;;;16.50;99.90;;;;;;4990094;28;20088;-62
2023/07/22 12:03:36;;;;;;;19.58;12.80;;;16.50;99.90;;;;;;4993462;28;20041;-63
2023/07/22 12:06:06;;;;;;;17.05;11.85;;;16.50;99.90;;;;;;4989949;28;20481;-63
2023/07/22 12:08:33;;;;;;;14.82;10.82;;;16.40;99.90;;;;;;4976315;28;20035;-63
2023/07/22 12:10:59;;;;;;;14.13;11.52;;;16.40;99.90;;;;;;4962928;28;20050;-63
2023/07/22 12:13:25;;;;;;;13.10;10.93;;;16.40;99.90;;;;;;4997763;28;20088;-63
2023/07/22 12:16:05;;;;;;;13.90;11.38;;;16.30;99.90;;;;;;4987907;28;20034;-63
2023/07/22 12:18:47;;;;;;;13.70;10.35;;;16.20;99.90;;;;;;4977928;28;20660;-63
2023/07/22 12:21:16;;;;;;;12.77;10.38;;;16.10;99.90;;;;;;4978814;28;20043;-63
2023/07/22 12:23:42;;;;;;;12.65;10.40;;;16.10;99.90;;;;;;4979311;28;20035;-63
2023/07/22 12:26:08;;;;;;;12.90;9.73;;;16.00;99.90;;;;;;4982141;28;20031;-63
2023/07/22 12:28:34;;;;;;;10.27;8.77;;;16.00;99.90;;;;;;4993529;28;20076;-63
2023/07/22 12:31:00;;;;;;;11.32;9.63;;;15.90;99.90;;;;;;4977160;28;20075;-63